sensor_id;sensor_type;location;lat;lon;timestamp;P1;durP1;ratioP1;P2;durP2;ratioP2
23252;SDS011;11795;47.054;15.408;2024-03-06T06:06:00;23.1;;;16.8;;
23252;SDS011;11795;47.054;15.408;2024-03-06T06:08:00;19.5;;;14.7;;
23252;SDS011;11795;47.054;15.408;2024-03-06T06:10:00;19.5;;;14.7;;
23252;SDS011;11795;47.054;15.408;2024-03-06T06:12:00;19.5;;;14.7;;
23252;SDS011;11795;47.054;15.408;2024-03-06T06:14:00;16.6;;;12.9;;
23252;SDS011;11795;47.054;15.408;2024-03-06T06:16:02;16.6;;;12.9;;
23252;SDS011;11795;47.054;15.408;2024-03-06T06:18:00;15.8;;;11.2;;
23252;SDS011;11795;47.054;15.408;2024-03-06T06:20:00;15.8;;;11.2;;
23252;SDS011;11795;47.054;15.408;2024-03-06T06:22:00;15.8;;;11.2;;
23252;SDS011;11795;47.054;15.408;2024-03-06T06:24:00;15.3;;;11.0;;
23252;SDS011;11795;47.054;15.408;2024-03-06T06:26:00;15.3;;;11.0;;
23252;SDS011;11795;47.054;15.408;2024-03-06T06:28:00;13.0;;;10.1;;
23252;SDS011;11795;47.054;15.408;2024-03-06T06:30:00;13.0;;;10.1;;
23252;SDS011;11795;47.054;15.408;2024-03-06T06:32:00;13.0;;;10.1;;
23252;SDS011;11795;47.054;15.408;2024-03-06T06:34:00;12.8;;;9.5;;
23252;SDS011;11795;47.054;15.408;2024-03-06T06:36:00;12.8;;;9.5;;
23252;SDS011;11795;47.054;15.408;2024-03-06T06:38:00;11.5;;;9.1;;
23252;SDS011;11795;47.054;15.408;2024-03-06T06:40:03;11.5;;;9.1;;
23252;SDS011;11795;47.054;15.408;2024-03-06T06:42:00;11.5;;;9.1;;
23252;SDS011;11795;47.054;15.408;2024-03-06T06:44:01;12.0;;;9.1;;
23252;SDS011;11795;47.054;15.408;2024-03-06T06:46:01;12.0;;;9.1;;
23252;SDS011;11795;47.054;15.408;2024-03-06T06:48:00;15.1;;;10.5;;
23252;SDS011;11795;47.054;15.408;2024-03-06T06:50:01;15.1;;;10.5;;
23252;SDS011;11795;47.054;15.408;2024-03-06T06:52:00;15.1;;;10.5;;
23252;SDS011;11795;47.054;15.408;2024-03-06T06:54:00;12.9;;;9.6;;
23252;SDS011;11795;47.054;15.408;2024-03-06T06:56:00;12.9;;;9.6;;
23252;SDS011;11795;47.054;15.408;2024-03-06T06:58:00;16.1;;;10.5;;
23252;SDS011;11795;47.054;15.408;2024-03-06T07:00:00;16.1;;;10.5;;
23252;SDS011;11795;47.054;15.408;2024-03-06T07:02:00;16.1;;;10.5;;
23252;SDS011;11795;47.054;15.408;2024-03-06T07:04:00;13.4;;;10.2;;
23252;SDS011;11795;47.054;15.408;2024-03-06T07:06:00;13.4;;;10.2;;
23252;SDS011;11795;47.054;15.408;2024-03-06T07:08:00;13.2;;;9.9;;
23252;SDS011;11795;47.054;15.408;2024-03-06T07:10:00;13.2;;;9.9;;
23252;SDS011;11795;47.054;15.408;2024-03-06T07:12:00;13.2;;;9.9;;
23252;SDS011;11795;47.054;15.408;2024-03-06T07:14:00;14.4;;;11.4;;
23252;SDS011;11795;47.054;15.408;2024-03-06T07:16:02;14.4;;;11.4;;
23252;SDS011;11795;47.054;15.408;2024-03-06T07:18:00;12.4;;;10.3;;
23252;SDS011;11795;47.054;15.408;2024-03-06T07:20:00;12.4;;;10.3;;
23252;SDS011;11795;47.054;15.408;2024-03-06T07:22:00;12.4;;;10.3;;
23252;SDS011;11795;47.054;15.408;2024-03-06T07:24:00;14.1;;;10.1;;
23252;SDS011;11795;47.054;15.408;2024-03-06T07:26:00;14.1;;;10.1;;
23252;SDS011;11795;47.054;15.408;2024-03-06T07:28:00;12.3;;;9.8;;
23252;SDS011;11795;47.054;15.408;2024-03-06T07:30:01;12.3;;;9.8;;
23252;SDS011;11795;47.054;15.408;2024-03-06T07:32:00;12.3;;;9.8;;
23252;SDS011;11795;47.054;15.408;2024-03-06T07:34:00;14.9;;;10.6;;
23252;SDS011;11795;47.054;15.408;2024-03-06T07:36:00;14.9;;;10.6;;
23252;SDS011;11795;47.054;15.408;2024-03-06T07:38:00;13.7;;;10.3;;
23252;SDS011;11795;47.054;15.408;2024-03-06T07:40:00;13.7;;;10.3;;
23252;SDS011;11795;47.054;15.408;2024-03-06T07:42:00;13.7;;;10.3;;
23252;SDS011;11795;47.054;15.408;2024-03-06T07:44:00;16.5;;;11.3;;
23252;SDS011;11795;47.054;15.408;2024-03-06T07:46:00;16.5;;;11.3;;
23252;SDS011;11795;47.054;15.408;2024-03-06T07:48:00;18.6;;;11.9;;
23252;SDS011;11795;47.054;15.408;2024-03-06T07:50:00;18.6;;;11.9;;
23252;SDS011;11795;47.054;15.408;2024-03-06T07:52:00;18.6;;;11.9;;
23252;SDS011;11795;47.054;15.408;2024-03-06T07:54:00;18.5;;;12.7;;
23252;SDS011;11795;47.054;15.408;2024-03-06T07:56:00;18.5;;;12.7;;
23252;SDS011;11795;47.054;15.408;2024-03-06T07:58:00;17.1;;;12.0;;
23252;SDS011;11795;47.054;15.408;2024-03-06T08:00:01;17.1;;;12.0;;
23252;SDS011;11795;47.054;15.408;2024-03-06T08:02:01;17.1;;;12.0;;
23252;SDS011;11795;47.054;15.408;2024-03-06T08:04:00;15.0;;;11.5;;
23252;SDS011;11795;47.054;15.408;2024-03-06T08:06:00;15.0;;;11.5;;
23252;SDS011;11795;47.054;15.408;2024-03-06T08:08:00;17.6;;;12.7;;
23252;SDS011;11795;47.054;15.408;2024-03-06T08:10:00;17.6;;;12.7;;
23252;SDS011;11795;47.054;15.408;2024-03-06T08:12:00;17.6;;;12.7;;
23252;SDS011;11795;47.054;15.408;2024-03-06T08:14:01;20.9;;;13.8;;
23252;SDS011;11795;47.054;15.408;2024-03-06T08:16:00;20.9;;;13.8;;
23252;SDS011;11795;47.054;15.408;2024-03-06T08:18:00;18.3;;;13.7;;
23252;SDS011;11795;47.054;15.408;2024-03-06T08:20:00;18.3;;;13.7;;
23252;SDS011;11795;47.054;15.408;2024-03-06T08:22:01;18.3;;;13.7;;
23252;SDS011;11795;47.054;15.408;2024-03-06T08:24:00;20.4;;;14.5;;
23252;SDS011;11795;47.054;15.408;2024-03-06T08:26:00;20.4;;;14.5;;
23252;SDS011;11795;47.054;15.408;2024-03-06T08:28:00;22.7;;;15.5;;
23252;SDS011;11795;47.054;15.408;2024-03-06T08:30:00;22.7;;;15.5;;
23252;SDS011;11795;47.054;15.408;2024-03-06T08:32:01;22.7;;;15.5;;
23252;SDS011;11795;47.054;15.408;2024-03-06T08:34:00;21.6;;;15.0;;
23252;SDS011;11795;47.054;15.408;2024-03-06T08:36:00;21.6;;;15.0;;
23252;SDS011;11795;47.054;15.408;2024-03-06T08:38:00;22.4;;;15.4;;
23252;SDS011;11795;47.054;15.408;2024-03-06T08:40:00;22.4;;;15.4;;
23252;SDS011;11795;47.054;15.408;2024-03-06T08:42:01;22.4;;;15.4;;
23252;SDS011;11795;47.054;15.408;2024-03-06T08:44:00;26.7;;;16.4;;
23252;SDS011;11795;47.054;15.408;2024-03-06T08:46:00;26.7;;;16.4;;
23252;SDS011;11795;47.054;15.408;2024-03-06T08:48:00;24.6;;;17.9;;
23252;SDS011;11795;47.054;15.408;2024-03-06T08:50:01;24.6;;;17.9;;
23252;SDS011;11795;47.054;15.408;2024-03-06T08:52:00;24.6;;;17.9;;
23252;SDS011;11795;47.054;15.408;2024-03-06T08:54:00;23.7;;;17.0;;
23252;SDS011;11795;47.054;15.408;2024-03-06T08:56:00;23.7;;;17.0;;
23252;SDS011;11795;47.054;15.408;2024-03-06T08:58:01;21.7;;;16.1;;
23252;SDS011;11795;47.054;15.408;2024-03-06T09:00:00;21.7;;;16.1;;
23252;SDS011;11795;47.054;15.408;2024-03-06T09:04:00;23.2;;;16.9;;
23252;SDS011;11795;47.054;15.408;2024-03-06T09:06:00;23.2;;;16.9;;
23252;SDS011;11795;47.054;15.408;2024-03-06T09:08:00;25.9;;;18.1;;
23252;SDS011;11795;47.054;15.408;2024-03-06T09:10:00;25.9;;;18.1;;
23252;SDS011;11795;47.054;15.408;2024-03-06T09:12:00;25.9;;;18.1;;
23252;SDS011;11795;47.054;15.408;2024-03-06T09:14:00;26.7;;;19.0;;
23252;SDS011;11795;47.054;15.408;2024-03-06T09:16:00;26.7;;;19.0;;
23252;SDS011;11795;47.054;15.408;2024-03-06T09:18:00;28.5;;;20.4;;
23252;SDS011;11795;47.054;15.408;2024-03-06T09:20:10;28.5;;;20.4;;
23252;SDS011;11795;47.054;15.408;2024-03-06T09:22:00;28.5;;;20.4;;
23252;SDS011;11795;47.054;15.408;2024-03-06T09:24:00;28.5;;;19.0;;
23252;SDS011;11795;47.054;15.408;2024-03-06T09:26:00;28.5;;;19.0;;
23252;SDS011;11795;47.054;15.408;2024-03-06T09:28:04;28.0;;;19.2;;
23252;SDS011;11795;47.054;15.408;2024-03-06T09:30:00;28.0;;;19.2;;
23252;SDS011;11795;47.054;15.408;2024-03-06T09:32:00;28.0;;;19.2;;
23252;SDS011;11795;47.054;15.408;2024-03-06T09:34:00;25.3;;;19.0;;
23252;SDS011;11795;47.054;15.408;2024-03-06T09:36:01;25.3;;;19.0;;
23252;SDS011;11795;47.054;15.408;2024-03-06T09:38:01;27.6;;;19.9;;
23252;SDS011;11795;47.054;15.408;2024-03-06T09:40:00;27.6;;;19.9;;
23252;SDS011;11795;47.054;15.408;2024-03-06T09:42:01;27.6;;;19.9;;
23252;SDS011;11795;47.054;15.408;2024-03-06T09:44:00;24.8;;;18.3;;
23252;SDS011;11795;47.054;15.408;2024-03-06T09:46:02;24.8;;;18.3;;
23252;SDS011;11795;47.054;15.408;2024-03-06T09:48:00;29.8;;;20.6;;
23252;SDS011;11795;47.054;15.408;2024-03-06T09:50:03;29.8;;;20.6;;
23252;SDS011;11795;47.054;15.408;2024-03-06T09:52:00;29.8;;;20.6;;
23252;SDS011;11795;47.054;15.408;2024-03-06T09:54:00;31.5;;;23.9;;
23252;SDS011;11795;47.054;15.408;2024-03-06T09:56:00;31.5;;;23.9;;
23252;SDS011;11795;47.054;15.408;2024-03-06T09:58:03;29.1;;;22.3;;
23252;SDS011;11795;47.054;15.408;2024-03-06T10:00:00;29.1;;;22.3;;
23252;SDS011;11795;47.054;15.408;2024-03-06T10:02:02;29.1;;;22.3;;
23252;SDS011;11795;47.054;15.408;2024-03-06T10:04:01;32.1;;;22.0;;
23252;SDS011;11795;47.054;15.408;2024-03-06T10:06:00;32.1;;;22.0;;
23252;SDS011;11795;47.054;15.408;2024-03-06T10:08:01;27.3;;;21.6;;
23252;SDS011;11795;47.054;15.408;2024-03-06T10:10:00;27.3;;;21.6;;
23252;SDS011;11795;47.054;15.408;2024-03-06T10:12:00;27.3;;;21.6;;
23252;SDS011;11795;47.054;15.408;2024-03-06T10:14:01;30.5;;;23.5;;
23252;SDS011;11795;47.054;15.408;2024-03-06T10:16:01;30.5;;;23.5;;
23252;SDS011;11795;47.054;15.408;2024-03-06T10:22:00;29.6;;;20.9;;
23252;SDS011;11795;47.054;15.408;2024-03-06T10:24:00;30.8;;;23.2;;
23252;SDS011;11795;47.054;15.408;2024-03-06T10:26:00;30.8;;;23.2;;
23252;SDS011;11795;47.054;15.408;2024-03-06T10:28:04;31.4;;;23.9;;
23252;SDS011;11795;47.054;15.408;2024-03-06T10:30:00;31.4;;;23.9;;
23252;SDS011;11795;47.054;15.408;2024-03-06T10:32:00;31.4;;;23.9;;
23252;SDS011;11795;47.054;15.408;2024-03-06T10:34:00;32.2;;;23.7;;
23252;SDS011;11795;47.054;15.408;2024-03-06T10:36:00;32.2;;;23.7;;
23252;SDS011;11795;47.054;15.408;2024-03-06T10:38:00;31.0;;;23.0;;
23252;SDS011;11795;47.054;15.408;2024-03-06T10:40:02;31.0;;;23.0;;
23252;SDS011;11795;47.054;15.408;2024-03-06T10:42:01;31.0;;;23.0;;
23252;SDS011;11795;47.054;15.408;2024-03-06T10:44:00;28.9;;;22.4;;
23252;SDS011;11795;47.054;15.408;2024-03-06T10:46:00;28.9;;;22.4;;
23252;SDS011;11795;47.054;15.408;2024-03-06T10:48:00;30.8;;;23.0;;
23252;SDS011;11795;47.054;15.408;2024-03-06T10:50:00;30.8;;;23.0;;
23252;SDS011;11795;47.054;15.408;2024-03-06T10:52:00;30.8;;;23.0;;
23252;SDS011;11795;47.054;15.408;2024-03-06T10:54:00;32.3;;;23.7;;
23252;SDS011;11795;47.054;15.408;2024-03-06T10:56:00;32.3;;;23.7;;
23252;SDS011;11795;47.054;15.408;2024-03-06T10:58:00;32.2;;;23.2;;
23252;SDS011;11795;47.054;15.408;2024-03-06T11:00:00;32.2;;;23.2;;
23252;SDS011;11795;47.054;15.408;2024-03-06T11:02:01;32.2;;;23.2;;
23252;SDS011;11795;47.054;15.408;2024-03-06T11:04:00;31.9;;;24.2;;
23252;SDS011;11795;47.054;15.408;2024-03-06T11:06:00;31.9;;;24.2;;
23252;SDS011;11795;47.054;15.408;2024-03-06T11:08:00;31.2;;;23.5;;
23252;SDS011;11795;47.054;15.408;2024-03-06T11:10:00;31.2;;;23.5;;
23252;SDS011;11795;47.054;15.408;2024-03-06T11:12:00;31.2;;;23.5;;
23252;SDS011;11795;47.054;15.408;2024-03-06T11:14:01;32.8;;;23.9;;
23252;SDS011;11795;47.054;15.408;2024-03-06T11:16:01;32.8;;;23.9;;
23252;SDS011;11795;47.054;15.408;2024-03-06T11:20:08;28.5;;;22.5;;
23252;SDS011;11795;47.054;15.408;2024-03-06T11:22:01;28.5;;;22.5;;
23252;SDS011;11795;47.054;15.408;2024-03-06T11:26:02;29.5;;;22.0;;
23252;SDS011;11795;47.054;15.408;2024-03-06T11:28:02;29.3;;;21.7;;
23252;SDS011;11795;47.054;15.408;2024-03-06T11:30:04;29.3;;;21.7;;
23252;SDS011;11795;47.054;15.408;2024-03-06T11:32:01;29.3;;;21.7;;
23252;SDS011;11795;47.054;15.408;2024-03-06T11:34:01;30.4;;;22.8;;
23252;SDS011;11795;47.054;15.408;2024-03-06T11:38:00;31.6;;;23.1;;
23252;SDS011;11795;47.054;15.408;2024-03-06T11:40:00;31.6;;;23.1;;
23252;SDS011;11795;47.054;15.408;2024-03-06T11:42:00;31.6;;;23.1;;
23252;SDS011;11795;47.054;15.408;2024-03-06T11:44:00;29.1;;;22.1;;
23252;SDS011;11795;47.054;15.408;2024-03-06T11:46:07;29.1;;;22.1;;
23252;SDS011;11795;47.054;15.408;2024-03-06T11:48:01;27.2;;;21.2;;
23252;SDS011;11795;47.054;15.408;2024-03-06T11:50:00;27.2;;;21.2;;
23252;SDS011;11795;47.054;15.408;2024-03-06T11:52:01;27.2;;;21.2;;
23252;SDS011;11795;47.054;15.408;2024-03-06T11:54:00;28.4;;;20.9;;
23252;SDS011;11795;47.054;15.408;2024-03-06T11:56:00;28.4;;;20.9;;
23252;SDS011;11795;47.054;15.408;2024-03-06T11:58:00;28.8;;;20.4;;
23252;SDS011;11795;47.054;15.408;2024-03-06T12:00:02;28.8;;;20.4;;
23252;SDS011;11795;47.054;15.408;2024-03-06T12:02:02;28.8;;;20.4;;
23252;SDS011;11795;47.054;15.408;2024-03-06T12:04:00;27.6;;;21.1;;
23252;SDS011;11795;47.054;15.408;2024-03-06T12:06:00;27.6;;;21.1;;
23252;SDS011;11795;47.054;15.408;2024-03-06T12:08:00;27.1;;;21.8;;
23252;SDS011;11795;47.054;15.408;2024-03-06T12:10:00;27.1;;;21.8;;
23252;SDS011;11795;47.054;15.408;2024-03-06T12:12:00;27.1;;;21.8;;
23252;SDS011;11795;47.054;15.408;2024-03-06T12:14:01;29.4;;;21.4;;
23252;SDS011;11795;47.054;15.408;2024-03-06T12:16:03;29.4;;;21.4;;
23252;SDS011;11795;47.054;15.408;2024-03-06T12:18:00;24.0;;;19.1;;
23252;SDS011;11795;47.054;15.408;2024-03-06T12:20:00;24.0;;;19.1;;
23252;SDS011;11795;47.054;15.408;2024-03-06T12:22:00;24.0;;;19.1;;
23252;SDS011;11795;47.054;15.408;2024-03-06T12:24:01;26.6;;;20.3;;
23252;SDS011;11795;47.054;15.408;2024-03-06T12:26:02;26.6;;;20.3;;
23252;SDS011;11795;47.054;15.408;2024-03-06T12:28:06;27.2;;;21.4;;
23252;SDS011;11795;47.054;15.408;2024-03-06T12:30:00;27.2;;;21.4;;
23252;SDS011;11795;47.054;15.408;2024-03-06T12:32:00;27.2;;;21.4;;
23252;SDS011;11795;47.054;15.408;2024-03-06T12:34:02;24.7;;;19.9;;
23252;SDS011;11795;47.054;15.408;2024-03-06T12:36:01;24.7;;;19.9;;
23252;SDS011;11795;47.054;15.408;2024-03-06T12:38:00;27.4;;;21.3;;
23252;SDS011;11795;47.054;15.408;2024-03-06T12:40:01;27.4;;;21.3;;
23252;SDS011;11795;47.054;15.408;2024-03-06T12:42:00;27.4;;;21.3;;
23252;SDS011;11795;47.054;15.408;2024-03-06T12:44:00;29.7;;;21.8;;
23252;SDS011;11795;47.054;15.408;2024-03-06T12:46:00;29.7;;;21.8;;
23252;SDS011;11795;47.054;15.408;2024-03-06T12:48:00;28.3;;;22.0;;
23252;SDS011;11795;47.054;15.408;2024-03-06T12:50:00;28.3;;;22.0;;
23252;SDS011;11795;47.054;15.408;2024-03-06T12:52:00;28.3;;;22.0;;
23252;SDS011;11795;47.054;15.408;2024-03-06T12:54:00;26.2;;;21.1;;
23252;SDS011;11795;47.054;15.408;2024-03-06T12:56:00;26.2;;;21.1;;
23252;SDS011;11795;47.054;15.408;2024-03-06T12:58:00;26.1;;;20.7;;
23252;SDS011;11795;47.054;15.408;2024-03-06T13:00:00;26.1;;;20.7;;
23252;SDS011;11795;47.054;15.408;2024-03-06T13:02:00;26.1;;;20.7;;
23252;SDS011;11795;47.054;15.408;2024-03-06T13:04:00;27.6;;;20.4;;
23252;SDS011;11795;47.054;15.408;2024-03-06T13:06:00;27.6;;;20.4;;
23252;SDS011;11795;47.054;15.408;2024-03-06T13:08:00;25.0;;;20.2;;
23252;SDS011;11795;47.054;15.408;2024-03-06T13:10:01;25.0;;;20.2;;
23252;SDS011;11795;47.054;15.408;2024-03-06T13:12:00;25.0;;;20.2;;
23252;SDS011;11795;47.054;15.408;2024-03-06T13:14:01;22.5;;;18.3;;
23252;SDS011;11795;47.054;15.408;2024-03-06T13:16:00;22.5;;;18.3;;
23252;SDS011;11795;47.054;15.408;2024-03-06T13:18:03;25.1;;;19.4;;
23252;SDS011;11795;47.054;15.408;2024-03-06T13:20:01;25.1;;;19.4;;
23252;SDS011;11795;47.054;15.408;2024-03-06T13:22:00;25.1;;;19.4;;
23252;SDS011;11795;47.054;15.408;2024-03-06T13:24:00;23.5;;;18.4;;
23252;SDS011;11795;47.054;15.408;2024-03-06T13:26:00;23.5;;;18.4;;
23252;SDS011;11795;47.054;15.408;2024-03-06T13:28:00;23.2;;;18.9;;
23252;SDS011;11795;47.054;15.408;2024-03-06T13:30:00;23.2;;;18.9;;
23252;SDS011;11795;47.054;15.408;2024-03-06T13:32:00;23.2;;;18.9;;
23252;SDS011;11795;47.054;15.408;2024-03-06T13:34:00;21.0;;;18.1;;
23252;SDS011;11795;47.054;15.408;2024-03-06T13:36:00;21.0;;;18.1;;
23252;SDS011;11795;47.054;15.408;2024-03-06T13:38:01;23.1;;;17.7;;
23252;SDS011;11795;47.054;15.408;2024-03-06T13:40:00;23.1;;;17.7;;
23252;SDS011;11795;47.054;15.408;2024-03-06T13:42:00;23.1;;;17.7;;
23252;SDS011;11795;47.054;15.408;2024-03-06T13:44:00;21.7;;;17.6;;
23252;SDS011;11795;47.054;15.408;2024-03-06T13:46:00;21.7;;;17.6;;
23252;SDS011;11795;47.054;15.408;2024-03-06T13:48:00;19.0;;;16.1;;
23252;SDS011;11795;47.054;15.408;2024-03-06T13:50:00;19.0;;;16.1;;
23252;SDS011;11795;47.054;15.408;2024-03-06T13:52:00;19.0;;;16.1;;
23252;SDS011;11795;47.054;15.408;2024-03-06T13:54:00;18.7;;;16.5;;
23252;SDS011;11795;47.054;15.408;2024-03-06T13:56:00;18.7;;;16.5;;
23252;SDS011;11795;47.054;15.408;2024-03-06T13:58:01;18.7;;;17.8;;
23252;SDS011;11795;47.054;15.408;2024-03-06T14:00:00;23.3;;;17.8;;
23252;SDS011;11795;47.054;15.408;2024-03-06T14:02:00;23.3;;;17.8;;
23252;SDS011;11795;47.054;15.408;2024-03-06T14:04:00;21.1;;;17.0;;
23252;SDS011;11795;47.054;15.408;2024-03-06T14:06:00;21.1;;;17.0;;
23252;SDS011;11795;47.054;15.408;2024-03-06T14:08:00;21.1;;;17.0;;
23252;SDS011;11795;47.054;15.408;2024-03-06T14:10:00;21.0;;;17.3;;
23252;SDS011;11795;47.054;15.408;2024-03-06T14:12:00;21.0;;;17.3;;
23252;SDS011;11795;47.054;15.408;2024-03-06T14:14:00;24.0;;;17.8;;
23252;SDS011;11795;47.054;15.408;2024-03-06T14:16:00;24.0;;;17.8;;
23252;SDS011;11795;47.054;15.408;2024-03-06T14:18:01;24.0;;;17.8;;
23252;SDS011;11795;47.054;15.408;2024-03-06T14:20:00;23.1;;;17.3;;
23252;SDS011;11795;47.054;15.408;2024-03-06T14:22:00;23.1;;;17.3;;
23252;SDS011;11795;47.054;15.408;2024-03-06T14:24:04;23.0;;;18.2;;
23252;SDS011;11795;47.054;15.408;2024-03-06T14:26:02;23.0;;;18.2;;
23252;SDS011;11795;47.054;15.408;2024-03-06T14:28:00;23.0;;;18.2;;
23252;SDS011;11795;47.054;15.408;2024-03-06T14:30:02;20.6;;;16.2;;
23252;SDS011;11795;47.054;15.408;2024-03-06T14:32:00;20.6;;;16.2;;
23252;SDS011;11795;47.054;15.408;2024-03-06T14:34:00;22.2;;;17.6;;
23252;SDS011;11795;47.054;15.408;2024-03-06T14:36:00;22.2;;;17.6;;
23252;SDS011;11795;47.054;15.408;2024-03-06T14:38:00;22.2;;;17.6;;
23252;SDS011;11795;47.054;15.408;2024-03-06T14:40:00;20.3;;;15.9;;
23252;SDS011;11795;47.054;15.408;2024-03-06T14:42:00;20.3;;;15.9;;
23252;SDS011;11795;47.054;15.408;2024-03-06T14:44:00;17.9;;;14.3;;
23252;SDS011;11795;47.054;15.408;2024-03-06T14:46:00;17.9;;;14.3;;
23252;SDS011;11795;47.054;15.408;2024-03-06T14:48:00;17.9;;;14.3;;
23252;SDS011;11795;47.054;15.408;2024-03-06T14:50:00;20.1;;;15.8;;
23252;SDS011;11795;47.054;15.408;2024-03-06T14:52:00;20.1;;;15.8;;
23252;SDS011;11795;47.054;15.408;2024-03-06T14:54:00;20.1;;;15.5;;
23252;SDS011;11795;47.054;15.408;2024-03-06T14:56:00;20.1;;;15.5;;
23252;SDS011;11795;47.054;15.408;2024-03-06T14:58:00;20.1;;;15.5;;
23252;SDS011;11795;47.054;15.408;2024-03-06T15:00:00;18.5;;;15.4;;
23252;SDS011;11795;47.054;15.408;2024-03-06T15:02:00;18.5;;;15.4;;
23252;SDS011;11795;47.054;15.408;2024-03-06T15:04:00;19.5;;;15.6;;
23252;SDS011;11795;47.054;15.408;2024-03-06T15:06:00;19.5;;;15.6;;
23252;SDS011;11795;47.054;15.408;2024-03-06T15:08:00;19.5;;;15.6;;
23252;SDS011;11795;47.054;15.408;2024-03-06T15:10:00;21.6;;;17.2;;
23252;SDS011;11795;47.054;15.408;2024-03-06T15:12:03;21.6;;;17.2;;
23252;SDS011;11795;47.054;15.408;2024-03-06T15:14:00;17.1;;;14.4;;
23252;SDS011;11795;47.054;15.408;2024-03-06T15:16:00;17.1;;;14.4;;
23252;SDS011;11795;47.054;15.408;2024-03-06T15:18:00;17.1;;;14.4;;
23252;SDS011;11795;47.054;15.408;2024-03-06T15:20:01;17.1;;;14.2;;
23252;SDS011;11795;47.054;15.408;2024-03-06T15:22:03;17.1;;;14.2;;
23252;SDS011;11795;47.054;15.408;2024-03-06T15:24:00;19.1;;;15.6;;
23252;SDS011;11795;47.054;15.408;2024-03-06T15:26:00;19.1;;;15.6;;
23252;SDS011;11795;47.054;15.408;2024-03-06T15:28:00;19.1;;;15.6;;
23252;SDS011;11795;47.054;15.408;2024-03-06T15:30:00;18.1;;;14.8;;
23252;SDS011;11795;47.054;15.408;2024-03-06T15:32:00;18.1;;;14.8;;
23252;SDS011;11795;47.054;15.408;2024-03-06T15:34:00;18.2;;;14.6;;
23252;SDS011;11795;47.054;15.408;2024-03-06T15:36:01;18.2;;;14.6;;
23252;SDS011;11795;47.054;15.408;2024-03-06T15:38:00;18.2;;;14.6;;
23252;SDS011;11795;47.054;15.408;2024-03-06T15:40:00;21.4;;;16.5;;
23252;SDS011;11795;47.054;15.408;2024-03-06T15:42:00;21.4;;;16.5;;
23252;SDS011;11795;47.054;15.408;2024-03-06T15:44:00;20.9;;;16.0;;
23252;SDS011;11795;47.054;15.408;2024-03-06T15:46:00;20.9;;;16.0;;
23252;SDS011;11795;47.054;15.408;2024-03-06T15:48:00;20.9;;;16.0;;
23252;SDS011;11795;47.054;15.408;2024-03-06T15:50:00;15.6;;;13.3;;
23252;SDS011;11795;47.054;15.408;2024-03-06T15:52:00;15.6;;;13.3;;
23252;SDS011;11795;47.054;15.408;2024-03-06T15:54:00;17.7;;;14.2;;
23252;SDS011;11795;47.054;15.408;2024-03-06T15:56:00;17.7;;;14.2;;
23252;SDS011;11795;47.054;15.408;2024-03-06T15:58:00;17.7;;;14.2;;
23252;SDS011;11795;47.054;15.408;2024-03-06T16:00:00;17.6;;;14.3;;
23252;SDS011;11795;47.054;15.408;2024-03-06T16:02:01;17.6;;;14.3;;
23252;SDS011;11795;47.054;15.408;2024-03-06T16:04:00;17.1;;;13.6;;
23252;SDS011;11795;47.054;15.408;2024-03-06T16:06:00;17.1;;;13.6;;
23252;SDS011;11795;47.054;15.408;2024-03-06T16:08:00;17.1;;;13.6;;
23252;SDS011;11795;47.054;15.408;2024-03-06T16:10:00;15.0;;;12.5;;
23252;SDS011;11795;47.054;15.408;2024-03-06T16:12:00;15.0;;;12.5;;
23252;SDS011;11795;47.054;15.408;2024-03-06T16:14:01;19.8;;;16.0;;
23252;SDS011;11795;47.054;15.408;2024-03-06T16:16:00;19.8;;;16.0;;
23252;SDS011;11795;47.054;15.408;2024-03-06T16:18:00;19.8;;;16.0;;
23252;SDS011;11795;47.054;15.408;2024-03-06T16:20:00;19.7;;;15.9;;
23252;SDS011;11795;47.054;15.408;2024-03-06T16:22:00;19.7;;;15.9;;
23252;SDS011;11795;47.054;15.408;2024-03-06T16:24:00;26.0;;;19.6;;
23252;SDS011;11795;47.054;15.408;2024-03-06T16:26:00;26.0;;;19.6;;
23252;SDS011;11795;47.054;15.408;2024-03-06T16:28:00;26.0;;;19.6;;
23252;SDS011;11795;47.054;15.408;2024-03-06T16:30:01;24.1;;;18.5;;
23252;SDS011;11795;47.054;15.408;2024-03-06T16:32:02;24.1;;;18.5;;
23252;SDS011;11795;47.054;15.408;2024-03-06T16:34:00;20.7;;;16.3;;
23252;SDS011;11795;47.054;15.408;2024-03-06T16:36:00;20.7;;;16.3;;
23252;SDS011;11795;47.054;15.408;2024-03-06T16:38:00;20.7;;;16.3;;
23252;SDS011;11795;47.054;15.408;2024-03-06T16:40:00;21.7;;;16.7;;
23252;SDS011;11795;47.054;15.408;2024-03-06T16:42:00;21.7;;;16.7;;
23252;SDS011;11795;47.054;15.408;2024-03-06T16:44:00;16.4;;;13.6;;
23252;SDS011;11795;47.054;15.408;2024-03-06T16:46:00;16.4;;;13.6;;
23252;SDS011;11795;47.054;15.408;2024-03-06T16:48:00;16.4;;;13.6;;
23252;SDS011;11795;47.054;15.408;2024-03-06T16:50:00;18.6;;;15.1;;
23252;SDS011;11795;47.054;15.408;2024-03-06T16:52:00;18.6;;;15.1;;
23252;SDS011;11795;47.054;15.408;2024-03-06T16:54:01;22.3;;;16.5;;
23252;SDS011;11795;47.054;15.408;2024-03-06T16:56:00;22.3;;;16.5;;
23252;SDS011;11795;47.054;15.408;2024-03-06T16:58:00;22.3;;;16.5;;
23252;SDS011;11795;47.054;15.408;2024-03-06T17:00:00;18.3;;;13.7;;
23252;SDS011;11795;47.054;15.408;2024-03-06T17:02:00;18.3;;;13.7;;
23252;SDS011;11795;47.054;15.408;2024-03-06T17:04:00;16.7;;;13.7;;
23252;SDS011;11795;47.054;15.408;2024-03-06T17:06:00;16.7;;;13.7;;
23252;SDS011;11795;47.054;15.408;2024-03-06T17:08:03;16.7;;;13.7;;
23252;SDS011;11795;47.054;15.408;2024-03-06T17:10:00;18.2;;;14.2;;
23252;SDS011;11795;47.054;15.408;2024-03-06T17:12:00;18.2;;;14.2;;
23252;SDS011;11795;47.054;15.408;2024-03-06T17:14:00;17.7;;;14.8;;
23252;SDS011;11795;47.054;15.408;2024-03-06T17:16:00;17.7;;;14.8;;
23252;SDS011;11795;47.054;15.408;2024-03-06T17:18:00;17.7;;;14.8;;
23252;SDS011;11795;47.054;15.408;2024-03-06T17:20:00;20.1;;;16.5;;
23252;SDS011;11795;47.054;15.408;2024-03-06T17:22:00;20.1;;;16.5;;
23252;SDS011;11795;47.054;15.408;2024-03-06T17:24:00;21.8;;;16.4;;
23252;SDS011;11795;47.054;15.408;2024-03-06T17:26:00;21.8;;;16.4;;
23252;SDS011;11795;47.054;15.408;2024-03-06T17:28:00;21.8;;;16.4;;
23252;SDS011;11795;47.054;15.408;2024-03-06T17:30:00;20.5;;;16.7;;
23252;SDS011;11795;47.054;15.408;2024-03-06T17:32:00;20.5;;;16.7;;
23252;SDS011;11795;47.054;15.408;2024-03-06T17:34:00;22.7;;;17.2;;
23252;SDS011;11795;47.054;15.408;2024-03-06T17:36:00;22.7;;;17.2;;
23252;SDS011;11795;47.054;15.408;2024-03-06T17:38:00;22.7;;;17.2;;
23252;SDS011;11795;47.054;15.408;2024-03-06T17:40:00;19.6;;;15.1;;
23252;SDS011;11795;47.054;15.408;2024-03-06T17:42:00;19.6;;;15.1;;
23252;SDS011;11795;47.054;15.408;2024-03-06T17:44:01;16.7;;;13.1;;
23252;SDS011;11795;47.054;15.408;2024-03-06T17:46:00;16.7;;;13.1;;
23252;SDS011;11795;47.054;15.408;2024-03-06T17:48:00;16.7;;;13.1;;
23252;SDS011;11795;47.054;15.408;2024-03-06T17:50:00;14.7;;;11.3;;
23252;SDS011;11795;47.054;15.408;2024-03-06T17:52:00;14.7;;;11.3;;
23252;SDS011;11795;47.054;15.408;2024-03-06T17:54:00;15.3;;;11.9;;
23252;SDS011;11795;47.054;15.408;2024-03-06T17:56:00;15.3;;;11.9;;
23252;SDS011;11795;47.054;15.408;2024-03-06T17:58:00;15.3;;;11.9;;
23252;SDS011;11795;47.054;15.408;2024-03-06T18:00:01;13.5;;;10.6;;
23252;SDS011;11795;47.054;15.408;2024-03-06T18:02:02;13.5;;;10.6;;
23252;SDS011;11795;47.054;15.408;2024-03-06T18:04:00;14.5;;;10.9;;
23252;SDS011;11795;47.054;15.408;2024-03-06T18:06:00;14.5;;;10.9;;
23252;SDS011;11795;47.054;15.408;2024-03-06T18:08:00;14.5;;;10.9;;
23252;SDS011;11795;47.054;15.408;2024-03-06T18:10:00;11.7;;;10.1;;